^^

Nearby METAR Reports

 

EGHH - Bournemouth Airp, United Kingdom
Distance from station: S 10mi, 17km
Updated: 13/10/2019 23:20
NOT Current
Clear
Clear
 Wind from SE
Wind: SE 1 mph , 2 km/h
Temperature: 9°C
Dew Point: 9°C
Humidity: 100%
Barometer: 1010 hPa
Summary: Clear
Visibility: greater than 7 miles , 10 km
2019/10/13 22:20 EGHH 132220Z 13001KT CAVOK 09/09 Q1010
EGDM - Boscombe Down, United Kingdom
Distance from station: N 16mi, 26km
Updated: 14/10/2019 01:50
Partly cloudy
Partly cloudy
 Wind from E
Wind: E 5 mph , 7 km/h
Temperature: 9°C
Wind Chill: 8°C
Dew Point: 9°C
Humidity: 100%
Barometer: 1010 hPa
Clouds: Partly cloudy
Cloud details: Mostly cloudy 4572 m
Partly cloudy 6096 m
2019/10/14 00:50 EGDM 140050Z AUTO 09004KT //// // BKN150/// SCT200/// 09/09 Q1010
 
EGVP - Middle Wallop, United Kingdom
Distance from station: NE 17mi, 27km
Updated: 14/10/2019 01:50
Overcast
Overcast
 Wind from SW
Wind: SW 1 mph , 2 km/h
Temperature: 9°C
Dew Point: 9°C
Humidity: 100%
Barometer: 1010 hPa
Clouds: Overcast
Visibility: 6 miles , 10 km
Cloud details: Overcast 4877 m
2019/10/14 00:50 EGVP 140050Z AUTO 22001KT 9999 // OVC160/// 09/09 Q1010
EGHI - Southampton Wx C, United Kingdom
Distance from station: E 19mi, 31km
Updated: 13/10/2019 22:20
NOT Current
Clear
Clear
 Wind from varies
Wind: varies 1 mph , 2 km/h
Temperature: 9°C
Dew Point: 8°C
Humidity: 94%
Barometer: 1010 hPa
Summary: Clear
Visibility: greater than 7 miles , 10 km
2019/10/13 21:20 EGHI 132120Z VRB01KT CAVOK 09/08 Q1010
 
EGDY - Yeovilton (navy), United Kingdom
Distance from station: W 36mi, 58km
Updated: 14/10/2019 01:50
Partly cloudy
Partly cloudy
 Wind from E
Wind: E 7 mph , 11 km/h
Temperature: 11°C
Dew Point: 10°C
Humidity: 94%
Barometer: 1009 hPa
Clouds: Partly cloudy
Visibility: 6 miles , 10 km
Cloud details: Partly cloudy 4877 m
2019/10/14 00:50 EGDY 140050Z AUTO 10006KT 9999 SCT160/// 11/10 Q1009
EGUO - Colerne Raf, United Kingdom
Distance from station: NNW 41mi, 66km
Updated: 14/02/2019 22:50
NOT Current
Clear
Clear
 Wind from ENE
Wind: ENE 1 mph , 2 km/h
Temperature: 1°C
Dew Point: 0°C
Humidity: 93%
Barometer: 1029 hPa
Summary: Clear
Visibility: greater than 7 miles , 10 km
2019/02/14 22:50 EGUO 142250Z 06001KT CAVOK 01/00 Q1029 BLU NOSIG
 
EGVO - Odiham Raf, United Kingdom
Distance from station: ENE 42mi, 68km
Updated: 14/10/2019 01:50
Overcast
Overcast
 Wind from E
Wind: E 5 mph , 7 km/h
Temperature: 10°C
Wind Chill: 9°C
Dew Point: 9°C
Humidity: 94%
Barometer: 1010 hPa
Clouds: Overcast
Visibility: 6 miles , 10 km
Cloud details: Overcast 4267 m
2019/10/14 00:50 EGVO 140050Z AUTO 10004KT 9999 OVC140/// 10/09 Q1010
EGGD - Bristol/Lulsgate, United Kingdom
Distance from station: NW 50mi, 81km
Updated: 14/10/2019 01:50
Clear
Clear
 Wind from SE
Wind: SE 5 mph , 7 km/h
Temperature: 11°C
Dew Point: 10°C
Humidity: 94%
Barometer: 1009 hPa
Clouds: Clear
Visibility: 6 miles , 10 km
2019/10/14 00:50 EGGD 140050Z AUTO 14004KT 100V170 9999 NCD 11/10 Q1009